Time;durP1;ratioP1;P1;durP2;ratioP2;P2;SDS_P1;SDS_P2;PMS_P1;PMS_P2;Temp;Humidity;BMP_temperature;BMP_pressure;BME280_temperature;BME280_humidity;BME280_pressure;Samples;Min_cycle;Max_cycle;Signal;HPM_P1;HPM_P2
2022/10/17 00:01:05;;;;;;;0.00;0.00;;;13.50;99.90;;;;;;5074227;28;20456;-83
2022/10/17 00:03:32;;;;;;;1.02;0.10;;;13.40;99.90;;;;;;5057310;28;20382;-83
2022/10/17 00:05:58;;;;;;;0.00;0.00;;;13.50;99.90;;;;;;5056908;28;20484;-84
2022/10/17 00:08:23;;;;;;;0.95;0.43;;;13.40;99.90;;;;;;5073854;28;20045;-84
2022/10/17 00:11:01;;;;;;;0.10;0.10;;;13.40;99.90;;;;;;5057696;28;20048;-83
2022/10/17 00:13:27;;;;;;;0.00;0.00;;;13.30;99.90;;;;;;5057090;28;20052;-83
2022/10/17 00:15:53;;;;;;;0.00;0.00;;;13.30;99.90;;;;;;5057281;28;20055;-83
2022/10/17 00:18:19;;;;;;;0.00;0.00;;;13.50;99.90;;;;;;5056733;28;20492;-83
2022/10/17 00:20:45;;;;;;;0.00;0.00;;;13.30;99.90;;;;;;5057080;28;20048;-83
2022/10/17 00:23:11;;;;;;;0.00;0.00;;;13.30;99.90;;;;;;5056785;28;20045;-83
2022/10/17 00:25:36;;;;;;;0.00;0.00;;;13.30;99.90;;;;;;5056742;28;20051;-84
2022/10/17 00:28:03;;;;;;;0.00;0.00;;;13.30;99.90;;;;;;5056894;28;20506;-83
2022/10/17 00:30:28;;;;;;;0.00;0.00;;;13.20;99.90;;;;;;5056924;28;20054;-83
2022/10/17 00:32:54;;;;;;;0.00;0.00;;;13.20;99.90;;;;;;5073388;28;20036;-83
2022/10/17 00:35:20;;;;;;;0.00;0.00;;;13.20;99.90;;;;;;5056272;28;20086;-83
2022/10/17 00:37:46;;;;;;;0.00;0.00;;;13.20;99.90;;;;;;5072802;28;20040;-83
2022/10/17 00:40:12;;;;;;;0.00;0.00;;;13.20;99.90;;;;;;5056617;28;20040;-83
2022/10/17 00:42:38;;;;;;;0.10;0.10;;;13.20;99.90;;;;;;5056695;28;20545;-83
2022/10/17 00:45:12;;;;;;;0.00;0.00;;;13.20;99.90;;;;;;5056694;28;20052;-83
2022/10/17 00:47:38;;;;;;;;;;;13.20;99.90;;;;;;5073644;28;20044;-83
2022/10/17 00:50:06;;;;;;;0.03;0.00;;;13.20;99.90;;;;;;5056629;28;19927;-83
2022/10/17 00:52:32;;;;;;;0.00;0.00;;;13.20;99.90;;;;;;5072279;28;20045;-83
2022/10/17 00:55:13;;;;;;;0.00;0.00;;;13.20;99.90;;;;;;5072665;28;20060;-83
2022/10/17 00:57:40;;;;;;;0.00;0.00;;;13.20;99.90;;;;;;5056972;28;20053;-83
2022/10/17 01:00:08;;;;;;;0.00;0.00;;;13.20;99.90;;;;;;5075388;28;20086;-83
2022/10/17 01:02:34;;;;;;;0.00;0.00;;;13.20;99.90;;;;;;5079845;28;20032;-83
2022/10/17 01:05:00;;;;;;;0.00;0.00;;;13.20;99.90;;;;;;5095927;28;20131;-83
2022/10/17 01:07:27;;;;;;;0.00;0.00;;;13.20;99.90;;;;;;5067037;28;20431;-83
2022/10/17 01:09:54;;;;;;;0.00;0.00;;;13.10;99.90;;;;;;5073571;28;20096;-83
2022/10/17 01:12:48;;;;;;;0.00;0.00;;;13.10;99.90;;;;;;5056665;28;20045;-83
2022/10/17 01:15:41;;;;;;;6.13;0.25;;;13.10;99.90;;;;;;5069629;28;20424;-83
2022/10/17 01:18:47;;;;;;;0.10;0.10;;;13.00;99.90;;;;;;5073045;28;20049;-83
2022/10/17 01:21:21;;;;;;;;;;;13.00;99.90;;;;;;5056751;28;20049;-83
2022/10/17 01:24:12;;;;;;;0.00;0.00;;;13.00;99.90;;;;;;5056115;28;19996;-83
2022/10/17 01:27:24;;;;;;;0.13;0.10;;;13.00;99.90;;;;;;5056135;28;20049;-83
2022/10/17 01:30:11;;;;;;;0.00;0.00;;;12.90;99.90;;;;;;5052835;28;20563;-83
2022/10/17 01:32:37;;;;;;;0.00;0.00;;;12.90;99.90;;;;;;5056055;28;20075;-83
2022/10/17 01:35:12;;;;;;;0.00;0.00;;;12.90;99.90;;;;;;5055677;28;20496;-83
2022/10/17 01:37:46;;;;;;;;;;;12.90;99.90;;;;;;5073039;28;20048;-83
2022/10/17 01:40:21;;;;;;;0.00;0.00;;;12.80;99.90;;;;;;5072895;28;19927;-83
2022/10/17 01:42:49;;;;;;;0.00;0.00;;;12.80;99.90;;;;;;5056142;28;20072;-83
2022/10/17 01:45:17;;;;;;;0.00;0.00;;;12.90;99.90;;;;;;5056047;28;20048;-83
2022/10/17 01:47:46;;;;;;;0.00;0.00;;;12.80;99.90;;;;;;5072560;28;20045;-83
2022/10/17 01:50:19;;;;;;;0.00;0.00;;;12.80;99.90;;;;;;5055917;28;20438;-83
2022/10/17 01:52:52;;;;;;;0.20;0.20;;;12.80;99.90;;;;;;5072784;28;20041;-83
2022/10/17 01:55:22;;;;;;;0.00;0.00;;;12.90;99.90;;;;;;5071998;28;20142;-83
2022/10/17 01:57:56;;;;;;;0.20;0.10;;;12.80;99.90;;;;;;5055944;28;20106;-83
2022/10/17 02:00:25;;;;;;;0.00;0.00;;;12.80;99.90;;;;;;5072578;28;20049;-83
2022/10/17 02:03:00;;;;;;;0.00;0.00;;;12.80;99.90;;;;;;5056155;28;20118;-83
2022/10/17 02:05:28;;;;;;;;;;;13.10;99.90;;;;;;5077212;28;20044;-83
2022/10/17 02:07:53;;;;;;;0.55;0.55;;;12.80;99.90;;;;;;5059480;28;19954;-83
2022/10/17 02:10:37;;;;;;;0.05;0.00;;;13.00;99.90;;;;;;5059830;28;20044;-83
2022/10/17 02:13:48;;;;;;;0.00;0.00;;;12.80;99.90;;;;;;5059566;28;20049;-83
2022/10/17 02:16:43;;;;;;;0.00;0.00;;;12.80;99.90;;;;;;5077034;28;20056;-83
2022/10/17 02:19:33;;;;;;;0.00;0.00;;;12.80;99.90;;;;;;5002620;28;20058;-83
2022/10/17 02:22:12;;;;;;;0.00;0.00;;;12.80;99.90;;;;;;5019059;28;20475;-83
2022/10/17 02:24:41;;;;;;;0.10;0.10;;;12.80;99.90;;;;;;5018759;28;20123;-83
2022/10/17 02:27:33;;;;;;;0.08;0.08;;;12.80;99.90;;;;;;5018397;28;20085;-83
2022/10/17 02:30:07;;;;;;;1.98;0.52;;;12.80;99.90;;;;;;5018724;28;20093;-83
2022/10/17 02:32:46;;;;;;;0.22;0.17;;;12.80;99.90;;;;;;5018465;28;20049;-83
2022/10/17 02:35:14;;;;;;;0.00;0.00;;;12.80;99.90;;;;;;5018002;28;20187;-83
2022/10/17 02:37:42;;;;;;;0.00;0.00;;;12.80;99.90;;;;;;5018393;28;20079;-83
2022/10/17 02:40:10;;;;;;;0.00;0.00;;;12.80;99.90;;;;;;5001648;28;20045;-83
2022/10/17 02:42:36;;;;;;;0.00;0.00;;;12.80;99.90;;;;;;5018101;28;20187;-83
2022/10/17 02:45:05;;;;;;;0.20;0.00;;;12.80;99.90;;;;;;5018022;28;20140;-83
2022/10/17 02:47:36;;;;;;;0.00;0.00;;;12.80;99.90;;;;;;5001875;28;20050;-83
2022/10/17 02:50:03;;;;;;;0.00;0.00;;;12.80;99.90;;;;;;5017991;28;20493;-83
2022/10/17 02:52:51;;;;;;;0.03;0.03;;;12.90;99.90;;;;;;5018391;28;20506;-83
2022/10/17 02:55:18;;;;;;;0.00;0.00;;;12.90;99.90;;;;;;5038946;28;20097;-83
2022/10/17 02:57:54;;;;;;;0.00;0.00;;;12.90;99.90;;;;;;5090743;28;20059;-83
2022/10/17 03:00:22;;;;;;;0.10;0.00;;;12.90;99.90;;;;;;5080431;28;20058;-82
2022/10/17 03:02:52;;;;;;;0.28;0.00;;;13.10;99.90;;;;;;5089164;28;20048;-83
2022/10/17 03:05:26;;;;;;;0.00;0.00;;;13.00;99.90;;;;;;5058931;28;20039;-83
2022/10/17 03:07:53;;;;;;;0.00;0.00;;;12.90;99.90;;;;;;5075506;28;20045;-83
2022/10/17 03:10:20;;;;;;;0.00;0.00;;;12.60;99.90;;;;;;5074942;28;20127;-83
2022/10/17 03:12:45;;;;;;;0.03;0.03;;;12.90;99.90;;;;;;5075070;28;20484;-82
2022/10/17 03:15:11;;;;;;;0.10;0.10;;;13.10;99.90;;;;;;5073873;28;20044;-83
2022/10/17 03:17:37;;;;;;;0.00;0.00;;;12.90;99.90;;;;;;5059129;28;20044;-83
2022/10/17 03:20:05;;;;;;;0.00;0.00;;;12.90;99.90;;;;;;5075277;28;20052;-83
2022/10/17 03:22:33;;;;;;;0.00;0.00;;;12.90;99.90;;;;;;5058902;28;20060;-83
2022/10/17 03:24:59;;;;;;;0.00;0.00;;;12.90;99.90;;;;;;5075044;28;20056;-83
2022/10/17 03:27:25;;;;;;;0.00;0.00;;;12.90;99.90;;;;;;5058353;28;20187;-83
2022/10/17 03:29:51;;;;;;;0.00;0.00;;;12.90;99.90;;;;;;5074860;28;20514;-83
2022/10/17 03:32:16;;;;;;;0.00;0.00;;;12.90;99.90;;;;;;5058238;28;20114;-83
2022/10/17 03:34:42;;;;;;;0.00;0.00;;;12.90;99.90;;;;;;5074535;28;20082;-83
2022/10/17 03:37:08;;;;;;;0.10;0.10;;;12.90;99.90;;;;;;5058094;28;20499;-83
2022/10/17 03:39:33;;;;;;;0.00;0.00;;;12.90;99.90;;;;;;5057987;28;20145;-83
2022/10/17 03:41:59;;;;;;;0.00;0.00;;;12.90;99.90;;;;;;5074642;28;20388;-83
2022/10/17 03:44:25;;;;;;;0.00;0.00;;;13.20;99.90;;;;;;5057545;28;20377;-83
2022/10/17 03:46:50;;;;;;;0.00;0.00;;;12.90;99.90;;;;;;5057991;28;20129;-83
2022/10/17 03:49:16;;;;;;;0.00;0.00;;;13.00;99.90;;;;;;5058011;28;20123;-83
2022/10/17 03:51:41;;;;;;;0.00;0.00;;;12.90;99.90;;;;;;5057789;28;20044;-83
2022/10/17 03:54:07;;;;;;;0.00;0.00;;;12.80;99.90;;;;;;5057709;28;20040;-83
2022/10/17 03:56:33;;;;;;;0.00;0.00;;;13.00;99.90;;;;;;5073890;28;20106;-83
2022/10/17 03:58:59;;;;;;;0.00;0.00;;;12.90;99.90;;;;;;5057240;28;20048;-83
2022/10/17 04:01:24;;;;;;;0.20;0.20;;;13.20;99.90;;;;;;5074899;28;20048;-83
2022/10/17 04:03:52;;;;;;;0.10;0.10;;;13.10;99.90;;;;;;5056810;28;20059;-83
2022/10/17 04:06:18;;;;;;;0.03;0.00;;;13.10;99.90;;;;;;5057403;28;20040;-83
2022/10/17 04:08:44;;;;;;;0.05;0.05;;;12.90;99.90;;;;;;5074377;28;20381;-83
2022/10/17 04:11:14;;;;;;;0.00;0.00;;;12.90;99.90;;;;;;5073684;28;20507;-83
2022/10/17 04:13:40;;;;;;;0.10;0.00;;;13.00;99.90;;;;;;5073672;28;20048;-83
2022/10/17 04:16:09;;;;;;;0.08;0.05;;;12.90;99.90;;;;;;5057190;28;20135;-83
2022/10/17 04:18:35;;;;;;;0.00;0.00;;;13.00;99.90;;;;;;5057243;28;20110;-83
2022/10/17 04:21:05;;;;;;;0.00;0.00;;;13.00;99.90;;;;;;5057062;28;20476;-83
2022/10/17 04:23:30;;;;;;;0.10;0.00;;;13.00;99.90;;;;;;5074149;28;20105;-83
2022/10/17 04:25:57;;;;;;;0.00;0.00;;;12.90;99.90;;;;;;5056634;28;20481;-83
2022/10/17 04:28:24;;;;;;;0.10;0.10;;;12.90;99.90;;;;;;5056932;28;20122;-83
2022/10/17 04:31:01;;;;;;;0.00;0.00;;;12.90;99.90;;;;;;5056912;28;20393;-83
2022/10/17 04:33:27;;;;;;;0.00;0.00;;;12.90;99.90;;;;;;5057206;28;20052;-83
2022/10/17 04:36:04;;;;;;;0.00;0.00;;;13.00;99.90;;;;;;5073674;28;20059;-83
2022/10/17 04:38:30;;;;;;;0.00;0.00;;;12.90;99.90;;;;;;5056834;28;20391;-83
2022/10/17 04:40:57;;;;;;;2.55;0.20;;;12.90;99.90;;;;;;5056361;28;20056;-83
2022/10/17 04:43:22;;;;;;;0.32;0.00;;;12.90;99.90;;;;;;5056740;28;20048;-83
2022/10/17 04:45:48;;;;;;;0.00;0.00;;;12.60;99.90;;;;;;5073456;28;20051;-83
2022/10/17 04:48:14;;;;;;;0.57;0.35;;;12.90;99.90;;;;;;5057300;28;20106;-82
2022/10/17 04:50:40;;;;;;;0.00;0.00;;;12.90;99.90;;;;;;5056706;28;20074;-84
2022/10/17 04:53:05;;;;;;;0.10;0.08;;;12.90;99.90;;;;;;5058494;28;20051;-82
2022/10/17 04:55:36;;;;;;;0.00;0.00;;;13.10;99.90;;;;;;5075407;28;20060;-83
2022/10/17 04:58:02;;;;;;;0.10;0.10;;;13.00;99.90;;;;;;5060327;28;20056;-83
2022/10/17 05:00:28;;;;;;;0.43;0.00;;;13.10;99.90;;;;;;5066277;28;20048;-83
2022/10/17 05:02:53;;;;;;;0.17;0.17;;;13.00;99.90;;;;;;5056702;28;20052;-83
2022/10/17 05:05:19;;;;;;;0.00;0.00;;;13.00;99.90;;;;;;5073339;28;20044;-83
2022/10/17 05:07:45;;;;;;;0.00;0.00;;;13.10;99.90;;;;;;5056397;28;20048;-83
2022/10/17 05:10:10;;;;;;;0.00;0.00;;;13.10;99.90;;;;;;5073205;28;20365;-83
2022/10/17 05:12:36;;;;;;;9.32;0.43;;;13.20;99.90;;;;;;5056366;28;20044;-83
2022/10/17 05:15:02;;;;;;;0.00;0.00;;;13.20;99.90;;;;;;5072762;28;20040;-83
2022/10/17 05:17:28;;;;;;;0.00;0.00;;;13.20;99.90;;;;;;5056007;28;20194;-83
2022/10/17 05:19:53;;;;;;;0.00;0.00;;;13.30;99.90;;;;;;5056393;28;20064;-83
2022/10/17 05:22:19;;;;;;;0.10;0.10;;;13.50;99.90;;;;;;5056218;28;20052;-83
2022/10/17 05:24:44;;;;;;;0.08;0.00;;;13.40;99.90;;;;;;5056151;28;20059;-83
2022/10/17 05:27:10;;;;;;;0.00;0.00;;;13.40;99.90;;;;;;5072968;28;20067;-83
2022/10/17 05:29:36;;;;;;;0.00;0.00;;;13.50;99.90;;;;;;5056717;28;20388;-83
2022/10/17 05:32:02;;;;;;;0.20;0.20;;;13.50;99.90;;;;;;5072688;28;20106;-83
2022/10/17 05:34:27;;;;;;;0.15;0.15;;;13.50;99.90;;;;;;5072569;28;20044;-83
2022/10/17 05:36:53;;;;;;;0.22;0.22;;;13.60;99.90;;;;;;5056454;28;20087;-83
2022/10/17 05:39:19;;;;;;;0.05;0.00;;;13.50;99.90;;;;;;5075724;28;20044;-83
2022/10/17 05:41:45;;;;;;;0.60;0.15;;;13.60;99.90;;;;;;5060055;28;20059;-83
2022/10/17 05:44:12;;;;;;;0.00;0.00;;;13.60;99.90;;;;;;5076628;28;20083;-83
2022/10/17 05:46:38;;;;;;;0.10;0.08;;;13.70;99.90;;;;;;5060180;28;20083;-84
2022/10/17 05:49:03;;;;;;;0.22;0.22;;;13.70;99.90;;;;;;5076479;28;20040;-83
2022/10/17 05:51:31;;;;;;;0.00;0.00;;;14.00;99.90;;;;;;5076634;28;20045;-83
2022/10/17 05:53:57;;;;;;;0.00;0.00;;;13.80;99.90;;;;;;5060072;28;20040;-83
2022/10/17 05:56:23;;;;;;;0.55;0.22;;;14.00;99.90;;;;;;5052853;28;20425;-83
2022/10/17 05:58:48;;;;;;;0.68;0.30;;;14.00;99.90;;;;;;5059761;28;20089;-83
2022/10/17 06:01:14;;;;;;;0.00;0.00;;;14.10;99.90;;;;;;5076275;28;20041;-83
2022/10/17 06:03:40;;;;;;;1.45;0.40;;;14.10;99.90;;;;;;5074137;28;20040;-83
2022/10/17 06:06:07;;;;;;;0.20;0.20;;;14.10;99.90;;;;;;5057947;28;20113;-84
2022/10/17 06:08:33;;;;;;;0.17;0.13;;;14.20;99.90;;;;;;5056462;28;20068;-84
2022/10/17 06:10:59;;;;;;;0.10;0.10;;;14.30;99.90;;;;;;5073722;28;20047;-83
2022/10/17 06:13:25;;;;;;;1.52;0.35;;;14.40;99.90;;;;;;5072731;28;20044;-83
2022/10/17 06:15:50;;;;;;;0.00;0.00;;;14.50;99.90;;;;;;5074441;28;20560;-83
2022/10/17 06:18:16;;;;;;;0.28;0.28;;;14.60;99.90;;;;;;5074141;28;20045;-83
2022/10/17 06:20:42;;;;;;;0.00;0.00;;;14.80;99.90;;;;;;5059420;28;20056;-83
2022/10/17 06:23:07;;;;;;;1.13;1.02;;;14.80;99.90;;;;;;5076011;28;20101;-82
2022/10/17 06:25:33;;;;;;;2.63;0.75;;;15.00;99.90;;;;;;5059711;28;20074;-82
2022/10/17 06:27:59;;;;;;;0.00;0.00;;;15.10;99.90;;;;;;5059868;28;20488;-83
2022/10/17 06:30:25;;;;;;;0.10;0.10;;;15.10;99.90;;;;;;5059309;28;20171;-83
2022/10/17 06:32:51;;;;;;;0.30;0.10;;;15.20;99.90;;;;;;5075871;28;20045;-84
2022/10/17 06:35:17;;;;;;;0.40;0.10;;;15.20;99.90;;;;;;5074494;28;20057;-83
2022/10/17 06:37:43;;;;;;;0.00;0.00;;;15.30;99.90;;;;;;5075378;28;20443;-82
2022/10/17 06:40:10;;;;;;;0.28;0.28;;;15.30;99.90;;;;;;5076470;28;20041;-82
2022/10/17 06:42:37;;;;;;;0.68;0.68;;;15.40;99.90;;;;;;5058999;28;20098;-83
2022/10/17 06:45:04;;;;;;;0.20;0.13;;;15.40;99.90;;;;;;5075854;28;20053;-82
2022/10/17 06:47:30;;;;;;;0.00;0.00;;;15.40;99.90;;;;;;5059450;28;20066;-82
2022/10/17 06:49:56;;;;;;;0.10;0.10;;;15.50;99.90;;;;;;5074760;28;20484;-83
2022/10/17 06:52:21;;;;;;;0.38;0.25;;;15.50;99.90;;;;;;5077875;28;20048;-83
2022/10/17 06:54:47;;;;;;;2.38;0.55;;;15.50;99.90;;;;;;5080666;28;20044;-83
2022/10/17 06:57:13;;;;;;;0.03;0.03;;;15.60;99.90;;;;;;5097681;28;20048;-83
2022/10/17 06:59:38;;;;;;;0.43;0.43;;;15.60;99.90;;;;;;5070812;28;20397;-83
2022/10/17 07:02:05;;;;;;;0.00;0.00;;;15.80;99.90;;;;;;5059090;28;20044;-83
2022/10/17 07:04:30;;;;;;;0.20;0.20;;;15.80;99.90;;;;;;5058486;28;20434;-83
2022/10/17 07:06:56;;;;;;;0.00;0.00;;;15.90;99.90;;;;;;5058910;28;20056;-83
2022/10/17 07:09:23;;;;;;;0.10;0.10;;;16.00;99.90;;;;;;5075308;28;20044;-84
2022/10/17 07:11:48;;;;;;;0.25;0.20;;;16.00;99.90;;;;;;5058803;28;20185;-83
2022/10/17 07:14:14;;;;;;;0.17;0.17;;;15.90;99.90;;;;;;5075274;28;20127;-83
2022/10/17 07:16:40;;;;;;;0.10;0.10;;;16.00;99.90;;;;;;5075237;28;20622;-84
2022/10/17 07:19:05;;;;;;;0.55;0.45;;;16.00;99.90;;;;;;5075085;28;20055;-83
2022/10/17 07:21:31;;;;;;;0.88;0.10;;;16.10;99.90;;;;;;5074900;28;20043;-84
2022/10/17 07:23:57;;;;;;;0.43;0.22;;;16.10;99.90;;;;;;5058052;28;20416;-84
2022/10/17 07:26:23;;;;;;;6.78;0.73;;;16.20;99.90;;;;;;5074251;28;20063;-84
2022/10/17 07:28:53;;;;;;;0.57;0.57;;;16.30;99.90;;;;;;5075237;28;20361;-83
2022/10/17 07:31:21;;;;;;;3.10;0.43;;;16.30;99.90;;;;;;5058319;28;20040;-84
2022/10/17 07:33:47;;;;;;;7.38;1.08;;;16.50;99.90;;;;;;5058035;28;20048;-83
2022/10/17 07:36:13;;;;;;;0.10;0.10;;;16.50;99.90;;;;;;5074892;28;20048;-83
2022/10/17 07:38:39;;;;;;;0.20;0.20;;;16.60;99.90;;;;;;5074189;28;20045;-83
2022/10/17 07:41:06;;;;;;;0.00;0.00;;;16.70;99.90;;;;;;5075074;28;20047;-83
2022/10/17 07:43:33;;;;;;;0.00;0.00;;;16.80;99.90;;;;;;5074929;28;20135;-83
2022/10/17 07:46:00;;;;;;;0.10;0.10;;;16.80;99.90;;;;;;5074927;28;20135;-83
2022/10/17 07:48:26;;;;;;;0.00;0.00;;;16.90;99.90;;;;;;5074620;28;20052;-84
2022/10/17 07:50:52;;;;;;;0.35;0.20;;;16.60;99.90;;;;;;5074730;28;20548;-84
2022/10/17 07:53:18;;;;;;;1.45;0.20;;;17.00;99.90;;;;;;5058461;28;20090;-83
2022/10/17 07:55:45;;;;;;;0.60;0.25;;;16.90;99.90;;;;;;5057063;28;20056;-83
2022/10/17 07:58:12;;;;;;;3.22;0.43;;;16.90;99.90;;;;;;5057915;28;20495;-84
2022/10/17 08:00:38;;;;;;;0.40;0.40;;;16.90;99.90;;;;;;5073446;28;20056;-83
2022/10/17 08:03:04;;;;;;;0.52;0.45;;;16.90;99.90;;;;;;5057610;28;20493;-84
2022/10/17 08:05:30;;;;;;;1.27;0.52;;;16.90;99.90;;;;;;5057394;28;20040;-85
2022/10/17 08:07:56;;;;;;;0.20;0.20;;;16.80;99.90;;;;;;5057696;28;20045;-84
2022/10/17 08:10:26;;;;;;;0.15;0.03;;;16.80;99.90;;;;;;5057544;28;20151;-84
2022/10/17 08:12:53;;;;;;;0.20;0.00;;;16.80;99.90;;;;;;5057749;28;20048;-84
2022/10/17 08:15:19;;;;;;;0.00;0.00;;;16.70;99.90;;;;;;5073675;28;20036;-84
2022/10/17 08:17:45;;;;;;;0.55;0.30;;;16.80;99.90;;;;;;5073857;28;20044;-84
2022/10/17 08:20:11;;;;;;;0.15;0.15;;;16.80;99.90;;;;;;5056750;28;20054;-84
2022/10/17 08:22:36;;;;;;;0.00;0.00;;;16.80;99.90;;;;;;5057352;28;20500;-83
2022/10/17 08:25:03;;;;;;;0.10;0.10;;;16.80;99.90;;;;;;5057126;28;20053;-84
2022/10/17 08:27:28;;;;;;;0.28;0.28;;;16.80;99.90;;;;;;5057281;28;20041;-83
2022/10/17 08:29:54;;;;;;;0.40;0.13;;;16.80;99.90;;;;;;5073572;28;20056;-83
2022/10/17 08:32:22;;;;;;;0.45;0.03;;;16.80;99.90;;;;;;5056728;28;20040;-83
2022/10/17 08:34:48;;;;;;;0.20;0.20;;;16.80;99.90;;;;;;5056865;28;20408;-84
2022/10/17 08:37:14;;;;;;;0.25;0.25;;;16.80;99.90;;;;;;5057388;28;20048;-83
2022/10/17 08:39:40;;;;;;;0.00;0.00;;;16.90;99.90;;;;;;5057251;28;20396;-84
2022/10/17 08:42:18;;;;;;;0.38;0.15;;;16.80;99.90;;;;;;5056849;28;20052;-84
2022/10/17 08:45:03;;;;;;;1.65;0.00;;;16.80;99.90;;;;;;5073804;28;20059;-84
2022/10/17 08:47:39;;;;;;;0.00;0.00;;;16.80;99.90;;;;;;5057737;28;20131;-84
2022/10/17 08:50:11;;;;;;;0.00;0.00;;;16.80;99.90;;;;;;5073607;28;20053;-84
2022/10/17 08:53:13;;;;;;;0.63;0.63;;;16.80;99.90;;;;;;5056807;28;20051;-84
2022/10/17 08:55:44;;;;;;;0.00;0.00;;;16.80;99.90;;;;;;5019057;28;20052;-84
2022/10/17 08:58:15;;;;;;;0.00;0.00;;;16.90;99.90;;;;;;5035597;28;20440;-84
2022/10/17 09:00:49;;;;;;;0.00;0.00;;;16.90;99.90;;;;;;5053113;28;20053;-84
2022/10/17 09:03:47;;;;;;;0.00;0.00;;;16.90;99.90;;;;;;5042587;28;20037;-84
2022/10/17 09:06:28;;;;;;;0.20;0.10;;;16.90;99.90;;;;;;5054142;28;20382;-84
2022/10/17 09:09:01;;;;;;;0.00;0.00;;;16.90;99.90;;;;;;5018480;28;20558;-84
2022/10/17 09:11:36;;;;;;;0.10;0.10;;;16.90;99.90;;;;;;5019784;28;20488;-84
2022/10/17 09:14:29;;;;;;;0.20;0.20;;;16.80;99.90;;;;;;5034986;28;20099;-84
2022/10/17 09:17:02;;;;;;;0.00;0.00;;;16.90;99.90;;;;;;5019482;28;20515;-84
2022/10/17 09:19:33;;;;;;;0.10;0.10;;;16.90;99.90;;;;;;5035766;28;20123;-84
2022/10/17 09:22:09;;;;;;;0.22;0.15;;;17.00;99.90;;;;;;5035455;28;20055;-84
2022/10/17 09:24:44;;;;;;;0.17;0.17;;;17.00;99.90;;;;;;5035619;28;20111;-84
2022/10/17 09:27:37;;;;;;;0.08;0.08;;;17.10;99.90;;;;;;5035752;28;20049;-85
2022/10/17 09:30:24;;;;;;;0.00;0.00;;;17.10;99.90;;;;;;5034721;28;20052;-84
2022/10/17 09:32:50;;;;;;;0.13;0.03;;;17.20;99.90;;;;;;5053943;28;20484;-84
2022/10/17 09:35:17;;;;;;;0.10;0.05;;;17.30;99.90;;;;;;5056205;28;20052;-85
2022/10/17 09:37:43;;;;;;;0.00;0.00;;;17.40;99.90;;;;;;5056732;28;20048;-84
2022/10/17 09:40:20;;;;;;;0.00;0.00;;;17.40;99.90;;;;;;5056323;28;20045;-84
2022/10/17 09:42:48;;;;;;;0.20;0.10;;;17.30;99.90;;;;;;5072955;28;20048;-84
2022/10/17 09:45:25;;;;;;;0.05;0.00;;;17.30;99.90;;;;;;5072687;28;20048;-84
2022/10/17 09:47:51;;;;;;;1.45;0.32;;;17.30;99.90;;;;;;5073180;28;20084;-85
2022/10/17 09:50:26;;;;;;;0.00;0.00;;;17.30;99.90;;;;;;5072995;28;20072;-84
2022/10/17 09:52:53;;;;;;;0.15;0.10;;;17.30;99.90;;;;;;5072800;28;20048;-85
2022/10/17 09:55:44;;;;;;;0.57;0.43;;;17.30;99.90;;;;;;5072419;28;20060;-85
2022/10/17 09:58:10;;;;;;;0.10;0.10;;;17.30;99.90;;;;;;5056071;28;20040;-84
2022/10/17 10:00:39;;;;;;;0.20;0.20;;;17.20;99.90;;;;;;5056482;28;20135;-84
2022/10/17 10:03:15;;;;;;;0.00;0.00;;;17.10;99.90;;;;;;5072557;28;20480;-83
2022/10/17 10:05:42;;;;;;;0.85;0.52;;;17.00;99.90;;;;;;5072798;28;20047;-86
2022/10/17 10:08:17;;;;;;;0.10;0.10;;;16.90;99.90;;;;;;5056271;28;20056;-87
2022/10/17 10:10:44;;;;;;;0.00;0.00;;;16.90;99.90;;;;;;5072891;28;20052;-84
2022/10/17 10:13:12;;;;;;;0.00;0.00;;;16.80;99.90;;;;;;5072853;28;20048;-82
2022/10/17 10:15:40;;;;;;;0.05;0.03;;;16.80;99.90;;;;;;5073038;28;20041;-83
2022/10/17 10:18:25;;;;;;;0.10;0.00;;;16.70;99.90;;;;;;5072875;28;20404;-84
2022/10/17 10:21:12;;;;;;;0.00;0.00;;;16.70;99.90;;;;;;5056078;28;20135;-84
2022/10/17 10:23:42;;;;;;;0.40;0.30;;;16.70;99.90;;;;;;5056198;28;20492;-84
2022/10/17 10:26:24;;;;;;;0.00;0.00;;;16.50;99.90;;;;;;5059606;28;20048;-84
2022/10/17 10:29:02;;;;;;;0.00;0.00;;;16.60;99.90;;;;;;5059483;28;20060;-83
2022/10/17 10:31:29;;;;;;;0.70;0.00;;;16.60;99.90;;;;;;5076387;28;20049;-85
2022/10/17 10:33:56;;;;;;;0.00;0.00;;;16.50;99.90;;;;;;5059319;28;20048;-83
2022/10/17 10:36:22;;;;;;;0.20;0.15;;;16.50;99.90;;;;;;5059369;28;20480;-84
2022/10/17 10:38:56;;;;;;;0.00;0.00;;;16.50;99.90;;;;;;5075903;28;20495;-84
2022/10/17 10:41:22;;;;;;;0.10;0.10;;;16.50;99.90;;;;;;5076629;28;20053;-83
2022/10/17 10:43:50;;;;;;;0.00;0.00;;;16.30;99.90;;;;;;5059323;28;20139;-84
2022/10/17 10:46:19;;;;;;;0.00;0.00;;;16.40;99.90;;;;;;5059241;28;20056;-85
2022/10/17 10:48:50;;;;;;;0.00;0.00;;;16.40;99.90;;;;;;5076054;28;20060;-86
2022/10/17 10:51:22;;;;;;;0.00;0.00;;;16.40;99.90;;;;;;5076302;28;20087;-85
2022/10/17 10:53:54;;;;;;;0.00;0.00;;;16.40;99.90;;;;;;5058646;28;20131;-85
2022/10/17 10:56:38;;;;;;;0.00;0.00;;;16.40;99.90;;;;;;5076036;28;20056;-84
2022/10/17 10:59:19;;;;;;;0.00;0.00;;;16.40;99.90;;;;;;5059320;28;20553;-85
2022/10/17 11:01:55;;;;;;;0.00;0.00;;;16.40;99.90;;;;;;5076181;28;20097;-85
2022/10/17 11:04:30;;;;;;;0.00;0.00;;;16.40;99.90;;;;;;5059460;28;20080;-86
2022/10/17 11:07:23;;;;;;;0.05;0.00;;;16.40;99.90;;;;;;5076343;28;20055;-86
2022/10/17 11:10:20;;;;;;;0.00;0.00;;;16.40;99.90;;;;;;5065480;28;20044;-85
2022/10/17 11:13:19;;;;;;;0.03;0.03;;;16.40;99.90;;;;;;5094355;28;20044;-85
2022/10/17 11:15:47;;;;;;;5.47;0.82;;;16.50;99.90;;;;;;5076614;28;20049;-86
2022/10/17 11:18:27;;;;;;;0.25;0.15;;;16.50;99.90;;;;;;5059215;28;20040;-86
2022/10/17 11:21:04;;;;;;;0.00;0.00;;;16.50;99.90;;;;;;5058821;28;20051;-86
2022/10/17 11:23:38;;;;;;;1.80;0.57;;;16.50;99.90;;;;;;5059014;28;20087;-86
2022/10/17 11:26:12;;;;;;;0.00;0.00;;;16.50;99.90;;;;;;5058839;28;20056;-86
2022/10/17 11:28:37;;;;;;;0.30;0.20;;;16.50;99.90;;;;;;5059118;28;20134;-86
2022/10/17 11:31:08;;;;;;;2.72;0.00;;;16.50;99.90;;;;;;5058462;28;20164;-85
2022/10/17 11:33:56;;;;;;;0.98;0.10;;;16.60;99.90;;;;;;5074969;28;20055;-85
2022/10/17 11:36:27;;;;;;;0.00;0.00;;;16.60;99.90;;;;;;5036482;28;20106;-86
2022/10/17 11:39:07;;;;;;;0.03;0.03;;;16.60;99.90;;;;;;5020902;28;20056;-86
2022/10/17 11:42:00;;;;;;;0.70;0.52;;;16.70;99.90;;;;;;5037502;28;20060;-86
2022/10/17 11:44:26;;;;;;;0.25;0.10;;;16.60;99.90;;;;;;5037150;28;20057;-86
2022/10/17 11:47:20;;;;;;;0.00;0.00;;;16.70;99.90;;;;;;5037228;28;20056;-85
2022/10/17 11:49:51;;;;;;;0.00;0.00;;;16.70;99.90;;;;;;4961898;28;20510;-85
2022/10/17 11:52:41;;;;;;;0.10;0.10;;;16.70;99.90;;;;;;4978151;28;20093;-85
2022/10/17 11:55:21;;;;;;;0.00;0.00;;;16.70;99.90;;;;;;4961807;28;20046;-85
2022/10/17 11:58:14;;;;;;;0.00;0.00;;;16.60;99.90;;;;;;4977873;28;20055;-84
2022/10/17 12:00:51;;;;;;;0.00;0.00;;;16.60;99.90;;;;;;4978144;28;20066;-83
2022/10/17 12:03:33;;;;;;;0.00;0.00;;;16.60;99.90;;;;;;4962030;28;20077;-84
2022/10/17 12:06:09;;;;;;;2.22;0.08;;;16.50;99.90;;;;;;4978017;28;20160;-84
2022/10/17 12:08:57;;;;;;;0.13;0.10;;;16.50;99.90;;;;;;4978143;28;20058;-83
2022/10/17 12:11:33;;;;;;;0.00;0.00;;;16.50;99.90;;;;;;4977995;28;20141;-84
2022/10/17 12:13:59;;;;;;;0.10;0.10;;;16.50;99.90;;;;;;4995356;28;20077;-83
2022/10/17 12:16:28;;;;;;;0.00;0.00;;;16.50;99.90;;;;;;5016886;28;20057;-83
2022/10/17 12:19:22;;;;;;;0.00;0.00;;;16.60;99.90;;;;;;5016975;28;20057;-83
2022/10/17 12:22:05;;;;;;;0.00;0.00;;;16.50;99.90;;;;;;5016969;28;20056;-83
2022/10/17 12:24:36;;;;;;;0.00;0.00;;;16.50;99.90;;;;;;5016983;28;20053;-83
2022/10/17 12:27:22;;;;;;;0.15;0.00;;;16.60;99.90;;;;;;5065520;28;20400;-83
2022/10/17 12:29:49;;;;;;;0.00;0.00;;;16.70;99.90;;;;;;5057852;28;20052;-84
2022/10/17 12:32:15;;;;;;;0.00;0.00;;;16.70;99.90;;;;;;5057232;28;20060;-83
2022/10/17 12:34:55;;;;;;;0.15;0.13;;;16.70;99.90;;;;;;5073733;28;20063;-83
2022/10/17 12:37:39;;;;;;;0.00;0.00;;;16.70;99.90;;;;;;5057706;28;20048;-83
2022/10/17 12:40:33;;;;;;;3.20;0.45;;;16.70;99.90;;;;;;5057105;28;20064;-83
2022/10/17 12:43:00;;;;;;;0.00;0.00;;;16.80;99.90;;;;;;5057487;28;20052;-83
2022/10/17 12:45:46;;;;;;;0.00;0.00;;;16.80;99.90;;;;;;5057363;28;20507;-83
2022/10/17 12:48:12;;;;;;;0.00;0.00;;;16.90;99.90;;;;;;5056144;28;20044;-84
2022/10/17 12:51:08;;;;;;;0.00;0.00;;;17.00;99.90;;;;;;5074124;28;20138;-84
2022/10/17 12:53:49;;;;;;;0.00;0.00;;;17.00;99.90;;;;;;5073535;28;20048;-83
2022/10/17 12:56:19;;;;;;;0.00;0.00;;;17.00;99.90;;;;;;5056729;28;20411;-83
2022/10/17 12:58:47;;;;;;;0.00;0.00;;;17.00;99.90;;;;;;5072988;28;20053;-83
2022/10/17 13:01:21;;;;;;;0.00;0.00;;;17.00;99.90;;;;;;5056773;28;20098;-83
2022/10/17 13:03:49;;;;;;;0.00;0.00;;;17.00;99.90;;;;;;5073611;28;20051;-83
2022/10/17 13:06:21;;;;;;;0.22;0.10;;;17.10;99.90;;;;;;5072668;28;20056;-83
2022/10/17 13:08:53;;;;;;;0.00;0.00;;;16.90;99.90;;;;;;5073527;28;20044;-83